createdAt,value
2018-09-09T00:00:19.630Z,6.85
2018-09-09T00:01:26.028Z,5.45
2018-09-09T00:02:32.425Z,6.05
2018-09-09T00:03:38.822Z,5.35
2018-09-09T00:04:45.169Z,5.62
2018-09-09T00:05:51.422Z,5.10
2018-09-09T00:06:57.860Z,5.68
2018-09-09T00:08:04.143Z,5.72
2018-09-09T00:09:10.805Z,5.55
2018-09-09T00:10:18.132Z,5.55
2018-09-09T00:11:25.201Z,5.20
2018-09-09T00:12:31.640Z,5.45
2018-09-09T00:13:37.953Z,6.60
2018-09-09T00:14:44.373Z,5.60
2018-09-09T00:15:50.710Z,4.80
2018-09-09T00:16:57.077Z,6.18
2018-09-09T00:18:03.642Z,6.78
2018-09-09T00:19:10.070Z,8.00
2018-09-09T00:20:20.112Z,5.55
2018-09-09T00:21:26.525Z,5.10
2018-09-09T00:22:32.969Z,5.00
2018-09-09T00:23:40.108Z,5.57
2018-09-09T00:24:46.925Z,6.35
2018-09-09T00:25:53.369Z,5.87
2018-09-09T00:26:59.780Z,5.18
2018-09-09T00:28:06.093Z,5.00
2018-09-09T00:29:12.467Z,11.38
2018-09-09T00:30:18.877Z,6.25
2018-09-09T00:31:25.204Z,4.90
2018-09-09T00:32:31.524Z,5.37
2018-09-09T00:33:37.818Z,4.65
2018-09-09T00:34:44.462Z,4.57
2018-09-09T00:35:51.291Z,4.80
2018-09-09T00:36:57.656Z,5.47
2018-09-09T00:38:04.134Z,5.22
2018-09-09T00:39:10.424Z,5.62
2018-09-09T00:40:16.828Z,4.70
2018-09-09T00:41:23.133Z,4.93
2018-09-09T00:42:29.440Z,4.62
2018-09-09T00:43:35.848Z,5.20
2018-09-09T00:44:42.305Z,4.37
2018-09-09T00:45:48.589Z,5.10
2018-09-09T00:46:55.008Z,4.78
2018-09-09T00:48:01.136Z,5.80
2018-09-09T00:49:07.313Z,4.80
2018-09-09T00:50:13.534Z,5.05
2018-09-09T00:53:14.577Z,6.72
2018-09-09T00:54:34.051Z,5.53
2018-09-09T00:55:40.417Z,4.97
2018-09-09T00:56:46.701Z,4.90
2018-09-09T00:57:53.023Z,5.05
2018-09-09T00:58:59.405Z,6.20
2018-09-09T01:00:05.053Z,6.10
2018-09-09T01:01:11.729Z,5.45
2018-09-09T01:02:16.892Z,7.40
2018-09-09T01:03:22.128Z,6.50
2018-09-09T01:04:28.410Z,6.90
2018-09-09T01:05:34.807Z,7.00
2018-09-09T01:06:41.142Z,6.40
2018-09-09T01:07:47.552Z,7.72
2018-09-09T01:08:53.967Z,6.70
2018-09-09T01:10:00.141Z,7.37
2018-09-09T01:11:07.280Z,4.70
2018-09-09T01:12:13.459Z,5.90
2018-09-09T01:13:19.853Z,5.95
2018-09-09T01:14:25.671Z,4.82
2018-09-09T01:15:32.069Z,5.37
2018-09-09T01:16:38.144Z,7.53
2018-09-09T01:17:44.285Z,4.85
2018-09-09T01:18:50.671Z,5.10
2018-09-09T01:19:57.003Z,5.35
2018-09-09T01:21:03.097Z,4.62
2018-09-09T01:22:09.798Z,5.12
2018-09-09T01:23:16.219Z,5.10
2018-09-09T01:24:22.549Z,5.47
2018-09-09T01:25:28.965Z,4.93
2018-09-09T01:26:35.079Z,4.70
2018-09-09T01:27:41.363Z,5.62
2018-09-09T01:28:47.501Z,5.60
2018-09-09T01:29:53.888Z,6.12
2018-09-09T01:30:59.607Z,4.93
2018-09-09T01:32:05.981Z,5.32
2018-09-09T01:33:12.004Z,5.30
2018-09-09T01:34:18.421Z,5.55
2018-09-09T01:35:24.864Z,5.25
2018-09-09T01:36:30.963Z,6.25
2018-09-09T01:37:37.255Z,6.62
2018-09-09T01:38:43.361Z,7.65
2018-09-09T01:39:49.708Z,6.60
2018-09-09T01:40:56.092Z,6.55
2018-09-09T01:42:02.505Z,6.10
2018-09-09T01:43:08.782Z,6.28
2018-09-09T01:44:15.724Z,7.45
2018-09-09T01:45:21.775Z,7.72
2018-09-09T01:46:28.177Z,7.35
2018-09-09T01:47:34.578Z,7.85
2018-09-09T01:48:41.037Z,7.85
2018-09-09T01:49:47.960Z,8.32
2018-09-09T01:50:54.024Z,8.35
2018-09-09T01:52:00.442Z,9.27
2018-09-09T01:53:06.408Z,8.10
2018-09-09T01:54:14.891Z,8.30
2018-09-09T01:55:22.172Z,8.15
2018-09-09T01:56:28.541Z,7.93
2018-09-09T01:57:34.925Z,6.68
2018-09-09T01:58:41.113Z,7.15
2018-09-09T01:59:47.512Z,7.87
2018-09-09T02:00:53.886Z,7.57
2018-09-09T02:02:00.337Z,7.78
2018-09-09T02:03:06.258Z,6.93
2018-09-09T02:04:12.655Z,7.50
2018-09-09T02:05:19.040Z,7.22
2018-09-09T02:06:25.416Z,7.45
2018-09-09T02:07:31.772Z,7.80
2018-09-09T02:08:38.085Z,7.45
2018-09-09T02:09:44.421Z,7.28
2018-09-09T02:10:50.704Z,7.20
2018-09-09T02:11:57.017Z,7.97
2018-09-09T02:13:03.356Z,7.95
2018-09-09T02:14:09.705Z,7.15
2018-09-09T02:15:16.051Z,9.88
2018-09-09T02:16:22.488Z,8.07
2018-09-09T02:17:28.769Z,8.35
2018-09-09T02:18:35.181Z,7.90
2018-09-09T02:19:41.527Z,7.78
2018-09-09T02:20:47.845Z,8.93
2018-09-09T02:21:54.152Z,8.50
2018-09-09T02:23:00.441Z,7.62
2018-09-09T02:24:06.554Z,7.50
2018-09-09T02:25:12.910Z,8.80
2018-09-09T02:26:19.179Z,8.10
2018-09-09T02:27:26.128Z,7.35
2018-09-09T02:28:32.536Z,8.75
2018-09-09T02:29:38.636Z,7.80
2018-09-09T02:30:45.046Z,8.23
2018-09-09T02:31:51.478Z,8.05
2018-09-09T02:32:57.781Z,8.68
2018-09-09T02:34:04.983Z,8.45
2018-09-09T02:35:11.433Z,7.95
2018-09-09T02:36:17.710Z,8.85
2018-09-09T02:37:23.919Z,7.80
2018-09-09T02:38:30.349Z,7.32
2018-09-09T02:39:36.804Z,12.13
2018-09-09T02:40:43.065Z,9.40
2018-09-09T02:41:49.369Z,8.27
2018-09-09T02:42:56.832Z,8.15
2018-09-09T02:44:03.250Z,7.43
2018-09-09T02:45:09.369Z,8.70
2018-09-09T02:46:17.489Z,8.27
2018-09-09T02:47:23.936Z,7.50
2018-09-09T02:48:30.356Z,7.85
2018-09-09T02:49:36.681Z,8.70
2018-09-09T02:50:42.977Z,8.45
2018-09-09T02:51:49.406Z,8.73
2018-09-09T02:52:55.592Z,7.97
2018-09-09T02:54:01.888Z,7.87
2018-09-09T02:55:08.284Z,7.70
2018-09-09T02:56:14.613Z,8.57
2018-09-09T02:57:20.921Z,8.50
2018-09-09T02:58:27.283Z,7.50
2018-09-09T02:59:33.604Z,7.95
2018-09-09T03:00:40.671Z,7.55
2018-09-09T03:01:46.773Z,7.82
2018-09-09T03:02:53.080Z,9.80
2018-09-09T03:03:59.509Z,9.38
2018-09-09T03:05:05.257Z,8.82
2018-09-09T03:06:11.622Z,9.18
2018-09-09T03:07:17.920Z,9.10
2018-09-09T03:08:24.040Z,7.70
2018-09-09T03:09:30.353Z,9.07
2018-09-09T03:10:36.426Z,8.57
2018-09-09T03:11:42.682Z,9.30
2018-09-09T03:12:48.982Z,8.68
2018-09-09T03:13:55.287Z,8.18
2018-09-09T03:15:01.625Z,8.43
2018-09-09T03:16:07.935Z,10.63
2018-09-09T03:17:14.380Z,10.00
2018-09-09T03:18:20.775Z,11.23
2018-09-09T03:19:27.064Z,9.15
2018-09-09T03:20:33.500Z,9.82
2018-09-09T03:21:39.830Z,8.98
2018-09-09T03:22:45.892Z,10.55
2018-09-09T03:23:52.214Z,9.55
2018-09-09T03:24:58.252Z,17.60
2018-09-09T03:26:04.670Z,10.65
2018-09-09T03:27:10.943Z,10.35
2018-09-09T03:28:17.336Z,10.00
2018-09-09T03:29:23.746Z,9.05
2018-09-09T03:30:30.219Z,9.57
2018-09-09T03:31:36.613Z,10.05
2018-09-09T03:32:42.904Z,9.07
2018-09-09T03:33:49.279Z,9.82
2018-09-09T03:34:55.543Z,8.93
2018-09-09T03:36:01.679Z,8.70
2018-09-09T03:37:08.052Z,9.30
2018-09-09T03:38:17.386Z,9.00
2018-09-09T03:39:23.737Z,9.45
2018-09-09T03:40:30.086Z,9.02
2018-09-09T03:41:36.413Z,8.43
2018-09-09T03:42:42.692Z,9.88
2018-09-09T03:43:48.995Z,8.75
2018-09-09T03:44:55.295Z,9.13
2018-09-09T03:46:01.640Z,8.68
2018-09-09T03:47:07.978Z,10.40
2018-09-09T03:48:14.035Z,9.55
2018-09-09T03:49:20.266Z,10.10
2018-09-09T03:50:26.691Z,10.82
2018-09-09T03:51:33.105Z,10.48
2018-09-09T03:52:40.452Z,9.60
2018-09-09T03:53:46.626Z,10.35
2018-09-09T03:54:53.199Z,9.60
2018-09-09T03:55:59.620Z,10.45
2018-09-09T03:57:05.962Z,10.30
2018-09-09T03:58:12.383Z,8.82
2018-09-09T03:59:19.636Z,10.18
2018-09-09T04:00:25.433Z,9.50
2018-09-09T04:01:32.178Z,9.60
2018-09-09T04:02:38.580Z,9.85
2018-09-09T04:03:45.197Z,8.95
2018-09-09T04:04:51.223Z,8.70
2018-09-09T04:05:58.580Z,8.52
2018-09-09T04:07:04.328Z,8.77
2018-09-09T04:08:10.696Z,10.48
2018-09-09T04:09:17.146Z,10.48
2018-09-09T04:10:23.445Z,10.32
2018-09-09T04:11:29.995Z,10.45
2018-09-09T04:12:36.648Z,10.60
2018-09-09T04:13:43.214Z,9.18
2018-09-09T04:14:50.499Z,9.38
2018-09-09T04:16:08.571Z,9.20
2018-09-09T04:17:14.851Z,9.85
2018-09-09T04:18:21.234Z,9.65
2018-09-09T04:19:27.678Z,8.90
2018-09-09T04:20:38.566Z,8.70
2018-09-09T04:21:44.794Z,9.75
2018-09-09T04:22:51.522Z,9.63
2018-09-09T04:23:58.007Z,8.65
2018-09-09T04:25:04.684Z,9.18
2018-09-09T04:26:11.131Z,8.88
2018-09-09T04:27:17.532Z,9.52
2018-09-09T04:28:23.990Z,8.95
2018-09-09T04:29:32.367Z,9.32
2018-09-09T04:30:39.949Z,8.13
2018-09-09T04:31:46.777Z,9.30
2018-09-09T04:32:54.209Z,9.23
2018-09-09T04:34:02.030Z,9.32
2018-09-09T04:35:10.904Z,8.70
2018-09-09T04:36:17.858Z,9.30
2018-09-09T04:37:24.252Z,10.80
2018-09-09T04:38:30.857Z,10.70
2018-09-09T04:39:38.098Z,9.48
2018-09-09T04:40:45.191Z,9.80
2018-09-09T04:41:52.976Z,9.75
2018-09-09T04:42:59.652Z,9.95
2018-09-09T04:44:07.930Z,10.15
2018-09-09T04:45:14.878Z,9.15
2018-09-09T04:46:21.868Z,10.20
2018-09-09T04:47:28.525Z,9.38
2018-09-09T04:48:35.111Z,9.15
2018-09-09T04:49:41.651Z,9.93
2018-09-09T04:50:47.936Z,10.13
2018-09-09T04:51:54.379Z,9.32
2018-09-09T04:53:00.890Z,9.90
2018-09-09T04:54:07.975Z,9.63
2018-09-09T04:55:14.642Z,9.07
2018-09-09T04:56:21.340Z,9.13
2018-09-09T04:57:27.894Z,9.02
2018-09-09T04:58:33.927Z,10.63
2018-09-09T04:59:40.437Z,9.40
2018-09-09T05:00:48.072Z,8.85
2018-09-09T05:01:54.715Z,9.57
2018-09-09T05:03:01.976Z,9.00
2018-09-09T05:04:08.736Z,9.05
2018-09-09T05:05:15.447Z,8.70
2018-09-09T05:06:22.149Z,10.32
2018-09-09T05:07:28.892Z,9.52
2018-09-09T05:08:35.646Z,8.43
2018-09-09T05:09:42.426Z,9.27
2018-09-09T05:10:49.160Z,8.80
2018-09-09T05:11:56.801Z,9.25
2018-09-09T05:13:03.839Z,8.52
2018-09-09T05:14:10.656Z,11.43
2018-09-09T05:15:17.800Z,8.55
2018-09-09T05:16:24.982Z,9.15
2018-09-09T05:17:31.465Z,8.63
2018-09-09T05:18:38.978Z,9.80
2018-09-09T05:19:47.703Z,9.13
2018-09-09T05:20:57.634Z,10.43
2018-09-09T05:22:04.971Z,9.18
2018-09-09T05:23:11.346Z,9.32
2018-09-09T05:24:17.683Z,10.13
2018-09-09T05:25:24.036Z,9.60
2018-09-09T05:26:30.680Z,9.38
2018-09-09T05:27:37.164Z,10.20
2018-09-09T05:28:44.036Z,9.38
2018-09-09T05:29:51.365Z,9.77
2018-09-09T05:30:57.880Z,9.85
2018-09-09T05:32:04.824Z,10.25
2018-09-09T05:33:12.388Z,11.70
2018-09-09T05:34:20.108Z,10.32
2018-09-09T05:35:26.686Z,10.50
2018-09-09T05:36:33.167Z,11.07
2018-09-09T05:37:39.887Z,10.60
2018-09-09T05:38:46.547Z,10.82
2018-09-09T05:39:53.908Z,10.73
2018-09-09T05:41:02.821Z,9.88
2018-09-09T05:42:10.916Z,9.55
2018-09-09T05:43:17.428Z,9.75
2018-09-09T05:44:25.396Z,10.70
2018-09-09T05:45:31.934Z,8.95
2018-09-09T05:46:39.212Z,10.10
2018-09-09T05:47:46.314Z,9.35
2018-09-09T05:48:53.577Z,9.75
2018-09-09T05:50:00.221Z,10.10
2018-09-09T05:51:06.632Z,9.43
2018-09-09T05:52:15.346Z,9.40
2018-09-09T05:53:21.964Z,9.95
2018-09-09T05:54:29.941Z,9.32
2018-09-09T05:55:36.637Z,9.27
2018-09-09T05:56:44.320Z,10.25
2018-09-09T05:57:51.284Z,10.15
2018-09-09T05:58:57.873Z,9.40
2018-09-09T06:00:04.688Z,9.32
2018-09-09T06:01:12.474Z,9.45
2018-09-09T06:02:20.347Z,9.55
2018-09-09T06:03:27.950Z,8.82
2018-09-09T06:04:34.607Z,9.20
2018-09-09T06:05:41.874Z,8.77
2018-09-09T06:06:49.609Z,9.15
2018-09-09T06:07:57.505Z,9.00
2018-09-09T06:09:05.438Z,9.05
2018-09-09T06:10:12.739Z,9.38
2018-09-09T06:11:20.050Z,9.13
2018-09-09T06:12:28.306Z,8.70
2018-09-09T06:13:35.035Z,9.65
2018-09-09T06:14:41.726Z,8.68
2018-09-09T06:15:49.428Z,9.25
2018-09-09T06:16:56.370Z,8.52
2018-09-09T06:18:03.231Z,9.07
2018-09-09T06:19:09.609Z,9.07
2018-09-09T06:20:16.241Z,8.60
2018-09-09T06:21:23.097Z,9.40
2018-09-09T06:22:31.052Z,9.80
2018-09-09T06:23:38.441Z,9.50
2018-09-09T06:24:45.031Z,10.23
2018-09-09T06:25:51.841Z,8.70
2018-09-09T06:26:58.292Z,10.88
2018-09-09T06:28:05.562Z,9.40
2018-09-09T06:29:12.397Z,9.52
2018-09-09T06:30:19.948Z,9.43
2018-09-09T06:31:26.850Z,9.02
2018-09-09T06:32:33.782Z,8.68
2018-09-09T06:33:40.573Z,9.18
2018-09-09T06:34:47.287Z,8.60
2018-09-09T06:35:54.469Z,8.98
2018-09-09T06:37:01.385Z,9.98
2018-09-09T06:38:08.498Z,8.77
2018-09-09T06:39:14.994Z,7.25
2018-09-09T06:40:21.528Z,8.30
2018-09-09T06:41:29.120Z,8.68
2018-09-09T06:42:35.768Z,7.50
2018-09-09T06:43:43.248Z,7.45
2018-09-09T06:44:50.242Z,7.80
2018-09-09T06:45:56.785Z,6.80
2018-09-09T06:47:03.650Z,8.32
2018-09-09T06:48:11.169Z,7.30
2018-09-09T06:49:17.684Z,7.22
2018-09-09T06:50:24.096Z,11.20
2018-09-09T06:51:30.467Z,6.90
2018-09-09T06:52:37.901Z,6.20
2018-09-09T06:53:47.571Z,7.28
2018-09-09T06:54:54.761Z,7.20
2018-09-09T06:56:02.709Z,6.75
2018-09-09T06:57:09.326Z,7.15
2018-09-09T06:58:16.042Z,7.55
2018-09-09T06:59:22.988Z,7.05
2018-09-09T07:00:29.706Z,6.65
2018-09-09T07:01:36.322Z,7.22
2018-09-09T07:02:43.868Z,6.75
2018-09-09T07:03:50.842Z,6.62
2018-09-09T07:04:58.304Z,6.32
2018-09-09T07:06:04.805Z,6.10
2018-09-09T07:07:11.680Z,6.12
2018-09-09T07:08:18.492Z,5.82
2018-09-09T07:09:24.993Z,6.18
2018-09-09T07:10:32.105Z,5.20
2018-09-09T07:11:39.722Z,8.10
2018-09-09T07:12:46.605Z,6.68
2018-09-09T07:13:53.200Z,7.70
2018-09-09T07:14:59.717Z,8.15
2018-09-09T07:16:06.132Z,6.43
2018-09-09T07:17:12.611Z,5.75
2018-09-09T07:18:20.821Z,5.97
2018-09-09T07:19:27.955Z,5.82
2018-09-09T07:20:34.506Z,6.20
2018-09-09T07:21:41.297Z,5.50
2018-09-09T07:22:48.330Z,5.72
2018-09-09T07:23:55.155Z,5.40
2018-09-09T07:25:02.587Z,5.80
2018-09-09T07:26:09.104Z,6.12
2018-09-09T07:27:15.467Z,5.80
2018-09-09T07:28:21.966Z,5.65
2018-09-09T07:29:28.541Z,5.45
2018-09-09T07:30:34.936Z,5.80
2018-09-09T07:31:41.329Z,5.35
2018-09-09T07:32:48.766Z,5.30
2018-09-09T07:33:55.122Z,5.47
2018-09-09T07:35:02.120Z,5.45
2018-09-09T07:36:08.573Z,5.30
2018-09-09T07:37:14.918Z,6.82
2018-09-09T07:38:23.070Z,5.68
2018-09-09T07:39:29.864Z,5.25
2018-09-09T07:40:37.803Z,4.82
2018-09-09T07:41:45.865Z,4.85
2018-09-09T07:42:52.789Z,5.20
2018-09-09T07:44:09.165Z,5.03
2018-09-09T07:45:26.315Z,5.85
2018-09-09T07:46:44.520Z,7.70
2018-09-09T07:47:54.306Z,5.00
2018-09-09T07:49:00.757Z,5.18
2018-09-09T07:50:07.851Z,4.00
2018-09-09T07:51:16.375Z,5.10
2018-09-09T07:52:23.101Z,4.37
2018-09-09T07:53:30.344Z,4.55
2018-09-09T07:54:36.804Z,4.40
2018-09-09T07:55:43.256Z,6.87
2018-09-09T07:56:49.534Z,4.20
2018-09-09T07:57:55.829Z,4.15
2018-09-09T07:59:04.440Z,4.37
2018-09-09T08:00:12.114Z,4.05
2018-09-09T08:01:20.293Z,4.30
2018-09-09T08:02:27.293Z,4.80
2018-09-09T08:03:34.204Z,5.00
2018-09-09T08:04:41.228Z,5.25
2018-09-09T08:05:49.898Z,4.93
2018-09-09T08:07:05.692Z,4.35
2018-09-09T08:08:22.912Z,4.60
2018-09-09T08:09:42.489Z,5.28
2018-09-09T08:12:30.017Z,5.18
2018-09-09T08:13:47.841Z,4.80
2018-09-09T08:15:03.572Z,4.60
2018-09-09T08:16:21.560Z,5.07
2018-09-09T08:17:35.860Z,4.70
2018-09-09T08:18:53.607Z,4.20
2018-09-09T08:20:11.772Z,4.22
2018-09-09T08:21:29.854Z,4.50
2018-09-09T08:22:47.524Z,3.33
2018-09-09T08:24:04.848Z,4.03
2018-09-09T08:25:25.556Z,5.50
2018-09-09T08:26:40.668Z,4.55
2018-09-09T08:28:00.019Z,3.65
2018-09-09T08:29:18.741Z,4.82
2018-09-09T08:30:41.214Z,4.85
2018-09-09T08:32:14.426Z,4.03
2018-09-09T08:33:35.251Z,3.95
2018-09-09T08:34:56.807Z,4.95
2018-09-09T08:36:14.999Z,4.15
2018-09-09T08:37:33.426Z,4.50
2018-09-09T08:38:53.212Z,5.70
2018-09-09T08:40:14.098Z,4.68
2018-09-09T08:41:24.613Z,7.03
2018-09-09T08:42:33.249Z,4.37
2018-09-09T08:43:40.036Z,5.35
2018-09-09T08:44:47.905Z,3.60
2018-09-09T08:45:55.751Z,4.10
2018-09-09T08:47:02.517Z,6.45
2018-09-09T08:48:09.371Z,5.45
2018-09-09T08:49:17.850Z,4.22
2018-09-09T08:50:24.786Z,3.80
2018-09-09T08:51:31.222Z,5.07
2018-09-09T08:52:37.507Z,6.68
2018-09-09T08:53:43.807Z,3.53
2018-09-09T08:54:50.210Z,4.95
2018-09-09T08:55:56.619Z,5.53
2018-09-09T08:57:02.954Z,4.43
2018-09-09T08:58:09.290Z,6.00
2018-09-09T08:59:15.823Z,5.53
2018-09-09T09:00:24.508Z,4.25
2018-09-09T09:01:30.878Z,3.47
2018-09-09T09:02:37.653Z,3.25
2018-09-09T09:03:44.905Z,3.35
2018-09-09T09:04:51.332Z,5.28
2018-09-09T09:05:57.383Z,3.75
2018-09-09T09:07:03.717Z,3.05
2018-09-09T09:08:10.095Z,5.12
2018-09-09T09:09:16.668Z,2.97
2018-09-09T09:10:23.012Z,4.00
2018-09-09T09:11:29.568Z,2.95
2018-09-09T09:12:35.980Z,4.35
2018-09-09T09:13:42.310Z,3.15
2018-09-09T09:14:48.834Z,3.10
2018-09-09T09:15:55.324Z,3.47
2018-09-09T09:17:01.432Z,3.10
2018-09-09T09:18:07.755Z,4.05
2018-09-09T09:19:14.207Z,3.25
2018-09-09T09:20:20.612Z,2.60
2018-09-09T09:21:27.040Z,3.42
2018-09-09T09:22:33.291Z,3.30
2018-09-09T09:23:39.780Z,2.67
2018-09-09T09:24:46.372Z,3.33
2018-09-09T09:25:52.676Z,1.92
2018-09-09T09:26:59.116Z,2.65
2018-09-09T09:28:05.598Z,2.65
2018-09-09T09:29:13.198Z,2.10
2018-09-09T09:30:19.767Z,3.50
2018-09-09T09:31:26.116Z,3.10
2018-09-09T09:32:32.530Z,2.15
2018-09-09T09:33:39.026Z,14.55
2018-09-09T09:34:45.340Z,3.90
2018-09-09T09:35:51.569Z,2.87
2018-09-09T09:36:57.900Z,2.35
2018-09-09T09:38:04.336Z,3.85
2018-09-09T09:39:10.333Z,3.05
2018-09-09T09:40:16.365Z,2.92
2018-09-09T09:41:22.712Z,2.40
2018-09-09T09:42:29.076Z,2.00
2018-09-09T09:43:35.010Z,3.55
2018-09-09T09:44:41.491Z,2.08
2018-09-09T09:45:48.008Z,2.50
2018-09-09T09:46:54.406Z,2.30
2018-09-09T09:48:00.735Z,2.50
2018-09-09T09:49:07.108Z,2.70
2018-09-09T09:50:13.485Z,2.40
2018-09-09T09:51:19.872Z,2.95
2018-09-09T09:52:26.233Z,2.28
2018-09-09T09:53:32.255Z,3.62
2018-09-09T09:54:38.839Z,1.85
2018-09-09T09:55:45.152Z,2.10
2018-09-09T09:56:51.432Z,4.62
2018-09-09T09:57:58.664Z,2.90
2018-09-09T09:59:05.941Z,2.25
2018-09-09T10:00:12.668Z,1.80
2018-09-09T10:01:19.097Z,1.90
2018-09-09T10:02:27.162Z,3.05
2018-09-09T10:03:33.867Z,2.03
2018-09-09T10:04:40.573Z,1.70
2018-09-09T10:05:47.402Z,2.90
2018-09-09T10:06:56.369Z,1.95
2018-09-09T10:08:05.159Z,4.80
2018-09-09T10:09:12.896Z,2.03
2018-09-09T10:10:19.818Z,1.85
2018-09-09T10:11:27.317Z,3.35
2018-09-09T10:12:33.911Z,1.85
2018-09-09T10:13:41.220Z,1.52
2018-09-09T10:14:47.597Z,2.35
2018-09-09T10:15:54.218Z,1.65
2018-09-09T10:17:00.747Z,1.60
2018-09-09T10:18:07.141Z,2.65
2018-09-09T10:19:13.757Z,1.30
2018-09-09T10:20:20.712Z,3.12
2018-09-09T10:21:27.745Z,1.20
2018-09-09T10:22:35.133Z,1.80
2018-09-09T10:23:42.998Z,1.80
2018-09-09T10:24:49.477Z,2.67
2018-09-09T10:25:55.910Z,1.67
2018-09-09T10:27:02.231Z,1.62
2018-09-09T10:28:08.632Z,1.80
2018-09-09T10:29:15.063Z,1.87
2018-09-09T10:30:21.496Z,2.20
2018-09-09T10:31:27.803Z,3.05
2018-09-09T10:32:34.195Z,1.50
2018-09-09T10:33:40.776Z,1.50
2018-09-09T10:34:47.025Z,3.75
2018-09-09T10:35:53.446Z,3.45
2018-09-09T10:36:59.415Z,3.47
2018-09-09T10:38:06.023Z,1.85
2018-09-09T10:39:12.289Z,2.17
2018-09-09T10:40:18.592Z,3.08
2018-09-09T10:41:24.864Z,3.55
2018-09-09T10:42:31.132Z,2.42
2018-09-09T10:43:37.401Z,1.35
2018-09-09T10:44:43.725Z,4.95
2018-09-09T10:45:50.125Z,1.58
2018-09-09T10:46:56.539Z,2.33
2018-09-09T10:48:03.069Z,1.30
2018-09-09T10:49:09.064Z,4.00
2018-09-09T10:50:15.523Z,2.15
2018-09-09T10:51:21.593Z,2.35
2018-09-09T10:52:27.885Z,2.20
2018-09-09T10:53:34.349Z,4.35
2018-09-09T10:54:40.648Z,1.20
2018-09-09T10:55:47.981Z,1.77
2018-09-09T10:56:54.296Z,2.65
2018-09-09T10:58:00.537Z,1.95
2018-09-09T10:59:06.844Z,2.53
2018-09-09T11:00:13.115Z,1.92
2018-09-09T11:01:19.401Z,1.55
2018-09-09T11:02:25.702Z,2.20
2018-09-09T11:03:31.915Z,3.37
2018-09-09T11:04:38.197Z,1.33
2018-09-09T11:05:44.499Z,2.67
2018-09-09T11:06:50.604Z,2.17
2018-09-09T11:07:56.756Z,1.67
2018-09-09T11:09:02.799Z,1.80
2018-09-09T11:10:08.748Z,1.58
2018-09-09T11:11:15.072Z,1.33
2018-09-09T11:12:20.765Z,1.87
2018-09-09T11:13:27.028Z,1.42
2018-09-09T11:14:33.491Z,1.45
2018-09-09T11:15:39.881Z,1.37
2018-09-09T11:16:45.871Z,3.90
2018-09-09T11:17:51.774Z,2.60
2018-09-09T11:18:57.733Z,1.95
2018-09-09T11:20:03.811Z,1.70
2018-09-09T11:21:10.118Z,1.25
2018-09-09T11:22:16.401Z,2.25
2018-09-09T11:23:22.673Z,1.25
2018-09-09T11:24:28.940Z,1.40
2018-09-09T11:25:35.400Z,1.40
2018-09-09T11:26:41.641Z,4.90
2018-09-09T11:27:47.614Z,3.55
2018-09-09T11:28:53.867Z,1.98
2018-09-09T11:30:00.223Z,2.10
2018-09-09T11:31:06.720Z,2.65
2018-09-09T11:32:13.004Z,2.45
2018-09-09T11:33:19.269Z,2.37
2018-09-09T11:34:25.523Z,1.65
2018-09-09T11:35:31.795Z,3.15
2018-09-09T11:36:38.024Z,1.50
2018-09-09T11:37:44.248Z,2.60
2018-09-09T11:38:50.582Z,2.10
2018-09-09T11:39:56.863Z,2.28
2018-09-09T11:41:03.600Z,1.60
2018-09-09T11:42:13.505Z,1.37
2018-09-09T11:43:19.697Z,1.45
2018-09-09T11:44:25.953Z,2.00
2018-09-09T11:45:31.936Z,1.90
2018-09-09T11:46:38.210Z,1.40
2018-09-09T11:47:44.473Z,1.90
2018-09-09T11:48:50.363Z,1.23
2018-09-09T11:49:56.610Z,2.30
2018-09-09T11:51:02.496Z,1.73
2018-09-09T11:52:08.759Z,1.20
2018-09-09T11:53:15.177Z,1.12
2018-09-09T11:54:20.918Z,2.03
2018-09-09T11:55:27.637Z,4.43
2018-09-09T11:56:33.253Z,1.35
2018-09-09T11:57:38.825Z,1.40
2018-09-09T11:58:44.357Z,2.12
2018-09-09T11:59:50.645Z,1.60
2018-09-09T12:00:56.855Z,2.45
2018-09-09T12:02:03.170Z,1.30
2018-09-09T12:03:09.597Z,2.00
2018-09-09T12:04:16.164Z,5.18
2018-09-09T12:05:22.388Z,2.10
2018-09-09T12:06:28.700Z,2.67
2018-09-09T12:07:35.044Z,2.55
2018-09-09T12:08:41.412Z,2.00
2018-09-09T12:09:47.660Z,2.45
2018-09-09T12:10:53.647Z,3.05
2018-09-09T12:12:00.067Z,1.85
2018-09-09T12:13:06.115Z,2.55
2018-09-09T12:14:12.548Z,1.75
2018-09-09T12:15:18.963Z,2.20
2018-09-09T12:16:25.193Z,5.68
2018-09-09T12:17:31.514Z,1.77
2018-09-09T12:18:37.806Z,1.98
2018-09-09T12:19:44.891Z,1.65
2018-09-09T12:20:51.074Z,1.67
2018-09-09T12:21:57.470Z,1.50
2018-09-09T12:23:03.799Z,2.00
2018-09-09T12:24:10.063Z,5.43
2018-09-09T12:25:16.313Z,2.40
2018-09-09T12:26:22.615Z,1.50
2018-09-09T12:27:29.013Z,2.28
2018-09-09T12:28:35.432Z,2.33
2018-09-09T12:29:41.745Z,2.00
2018-09-09T12:30:48.157Z,2.35
2018-09-09T12:31:54.599Z,2.12
2018-09-09T12:33:00.908Z,1.10
2018-09-09T12:34:07.306Z,1.50
2018-09-09T12:35:13.592Z,1.80
2018-09-09T12:36:19.902Z,4.82
2018-09-09T12:37:26.202Z,2.20
2018-09-09T12:38:32.133Z,3.15
2018-09-09T12:39:38.379Z,2.55
2018-09-09T12:40:44.690Z,1.30
2018-09-09T12:41:51.007Z,3.90
2018-09-09T12:42:57.045Z,1.87
2018-09-09T12:44:03.099Z,1.33
2018-09-09T12:46:56.301Z,1.40
2018-09-09T12:48:31.213Z,2.17
2018-09-09T12:49:50.440Z,1.60
2018-09-09T12:51:01.542Z,1.40
2018-09-09T12:52:07.225Z,3.65
2018-09-09T12:53:13.189Z,2.20
2018-09-09T12:54:19.474Z,3.08
2018-09-09T12:55:25.732Z,2.05
2018-09-09T12:56:31.702Z,1.90
2018-09-09T12:57:37.975Z,3.47
2018-09-09T12:58:44.231Z,2.05
2018-09-09T12:59:49.955Z,2.45
2018-09-09T13:00:55.907Z,2.33
2018-09-09T13:02:02.202Z,1.55
2018-09-09T13:03:08.513Z,1.17
2018-09-09T13:04:14.796Z,1.62
2018-09-09T13:05:21.021Z,1.70
2018-09-09T13:06:27.234Z,1.40
2018-09-09T13:07:33.507Z,1.98
2018-09-09T13:08:39.756Z,1.40
2018-09-09T13:09:46.031Z,1.50
2018-09-09T13:10:52.307Z,1.95
2018-09-09T13:11:58.555Z,2.03
2018-09-09T13:13:04.248Z,1.30
2018-09-09T13:14:11.062Z,1.60
2018-09-09T13:15:17.322Z,2.42
2018-09-09T13:16:23.579Z,1.85
2018-09-09T13:17:29.851Z,1.70
2018-09-09T13:18:36.154Z,3.10
2018-09-09T13:19:42.441Z,1.77
2018-09-09T13:20:48.730Z,1.50
2018-09-09T13:21:54.699Z,2.25
2018-09-09T13:23:01.042Z,1.75
2018-09-09T13:24:07.028Z,3.70
2018-09-09T13:25:13.296Z,1.00
2018-09-09T13:26:19.344Z,1.50
2018-09-09T13:27:25.466Z,2.23
2018-09-09T13:28:31.696Z,2.85
2018-09-09T13:29:38.151Z,2.15
2018-09-09T13:30:44.128Z,1.60
2018-09-09T13:31:50.503Z,1.40
2018-09-09T13:32:56.804Z,2.15
2018-09-09T13:34:02.793Z,3.20
2018-09-09T13:35:09.087Z,2.25
2018-09-09T13:36:15.009Z,2.77
2018-09-09T13:37:20.934Z,1.45
2018-09-09T13:38:27.270Z,3.17
2018-09-09T13:39:32.859Z,1.80
2018-09-09T13:40:38.769Z,1.62
2018-09-09T13:41:44.679Z,1.45
2018-09-09T13:42:50.285Z,3.17
2018-09-09T13:43:56.556Z,1.92
2018-09-09T13:45:02.452Z,1.70
2018-09-09T13:46:08.038Z,2.10
2018-09-09T13:47:13.929Z,1.67
2018-09-09T13:48:19.951Z,2.65
2018-09-09T13:49:25.914Z,1.60
2018-09-09T13:50:31.814Z,3.58
2018-09-09T13:51:38.020Z,1.37
2018-09-09T13:52:43.976Z,2.60
2018-09-09T13:53:49.689Z,1.60
2018-09-09T13:54:55.618Z,1.53
2018-09-09T13:56:01.904Z,2.22
2018-09-09T13:57:08.214Z,1.30
2018-09-09T13:58:14.562Z,1.42
2018-09-09T13:59:20.933Z,1.58
2018-09-09T14:00:27.236Z,1.98
2018-09-09T14:01:33.493Z,2.28
2018-09-09T14:02:39.739Z,1.98
2018-09-09T14:03:45.993Z,2.22
2018-09-09T14:04:52.492Z,1.40
2018-09-09T14:05:58.765Z,2.00
2018-09-09T14:07:04.698Z,2.40
2018-09-09T14:08:10.989Z,1.80
2018-09-09T14:09:17.215Z,2.47
2018-09-09T14:10:23.500Z,2.05
2018-09-09T14:11:29.754Z,5.05
2018-09-09T14:12:35.448Z,2.37
2018-09-09T14:13:41.450Z,1.60
2018-09-09T14:14:47.707Z,1.50
2018-09-09T14:15:53.985Z,2.80
2018-09-09T14:17:00.268Z,1.62
2018-09-09T14:18:06.532Z,2.28
2018-09-09T14:19:12.744Z,2.45
2018-09-09T14:20:19.002Z,2.03
2018-09-09T14:21:25.221Z,1.12
2018-09-09T14:22:31.345Z,2.43
2018-09-09T14:23:37.759Z,1.80
2018-09-09T14:24:43.648Z,3.00
2018-09-09T14:25:49.567Z,1.40
2018-09-09T14:26:55.801Z,1.80
2018-09-09T14:28:02.158Z,1.65
2018-09-09T14:29:08.624Z,3.58
2018-09-09T14:30:15.119Z,4.25
2018-09-09T14:31:21.118Z,1.50
2018-09-09T14:32:27.364Z,2.35
2018-09-09T14:33:33.652Z,1.62
2018-09-09T14:34:39.940Z,1.90
2018-09-09T14:35:46.431Z,1.73
2018-09-09T14:36:52.723Z,1.70
2018-09-09T14:37:58.992Z,1.50
2018-09-09T14:39:04.378Z,1.70
2018-09-09T14:40:10.596Z,2.40
2018-09-09T14:41:16.804Z,2.97
2018-09-09T14:42:23.014Z,1.50
2018-09-09T14:43:29.313Z,3.15
2018-09-09T14:44:36.117Z,2.95
2018-09-09T14:45:42.388Z,1.62
2018-09-09T14:46:48.658Z,1.60
2018-09-09T14:47:54.881Z,1.77
2018-09-09T14:49:01.228Z,1.42
2018-09-09T14:50:07.075Z,1.58
2018-09-09T14:51:13.345Z,1.70
2018-09-09T14:52:19.612Z,1.75
2018-09-09T14:53:25.862Z,2.22
2018-09-09T14:54:32.198Z,1.40
2018-09-09T14:55:38.416Z,1.23